sensor_id;sensor_type;location;lat;lon;timestamp;pressure;altitude;pressure_sealevel;temperature;humidity
9721;BME280;4899;42.644;23.366;2023-05-25T00:01:25;94221.06;;;15.65;100.00
9721;BME280;4899;42.644;23.366;2023-05-25T00:03:51;94229.09;;;15.60;100.00
9721;BME280;4899;42.644;23.366;2023-05-25T00:06:19;94237.38;;;15.50;100.00
9721;BME280;4899;42.644;23.366;2023-05-25T00:08:45;94236.78;;;15.41;100.00
9721;BME280;4899;42.644;23.366;2023-05-25T00:11:11;94235.13;;;15.32;100.00
9721;BME280;4899;42.644;23.366;2023-05-25T00:13:38;94224.19;;;15.23;100.00
9721;BME280;4899;42.644;23.366;2023-05-25T00:16:03;94234.88;;;15.22;100.00
9721;BME280;4899;42.644;23.366;2023-05-25T00:18:30;94234.53;;;15.23;100.00
9721;BME280;4899;42.644;23.366;2023-05-25T00:20:57;94228.44;;;15.16;100.00
9721;BME280;4899;42.644;23.366;2023-05-25T00:23:23;94249.94;;;15.16;100.00
9721;BME280;4899;42.644;23.366;2023-05-25T00:25:48;94227.34;;;15.01;100.00
9721;BME280;4899;42.644;23.366;2023-05-25T00:28:14;94241.06;;;15.01;100.00
9721;BME280;4899;42.644;23.366;2023-05-25T00:30:39;94238.88;;;14.88;100.00
9721;BME280;4899;42.644;23.366;2023-05-25T00:33:05;94235.25;;;14.76;100.00
9721;BME280;4899;42.644;23.366;2023-05-25T00:35:30;94245.28;;;14.78;100.00
9721;BME280;4899;42.644;23.366;2023-05-25T00:37:56;94240.69;;;14.71;100.00
9721;BME280;4899;42.644;23.366;2023-05-25T00:40:21;94242.63;;;14.74;100.00
9721;BME280;4899;42.644;23.366;2023-05-25T00:42:47;94236.94;;;14.69;100.00
9721;BME280;4899;42.644;23.366;2023-05-25T00:45:12;94243.63;;;14.70;100.00
9721;BME280;4899;42.644;23.366;2023-05-25T00:47:38;94255.31;;;14.64;100.00
9721;BME280;4899;42.644;23.366;2023-05-25T00:50:07;94257.56;;;14.65;100.00
9721;BME280;4899;42.644;23.366;2023-05-25T00:52:33;94257.97;;;14.67;100.00
9721;BME280;4899;42.644;23.366;2023-05-25T00:54:59;94254.38;;;14.72;100.00
9721;BME280;4899;42.644;23.366;2023-05-25T00:57:27;94248.38;;;14.68;100.00
9721;BME280;4899;42.644;23.366;2023-05-25T00:59:54;94238.25;;;14.63;100.00
9721;BME280;4899;42.644;23.366;2023-05-25T01:02:22;94256.47;;;14.66;100.00
9721;BME280;4899;42.644;23.366;2023-05-25T01:04:52;94250.00;;;14.60;100.00
9721;BME280;4899;42.644;23.366;2023-05-25T01:07:21;94264.78;;;14.60;100.00
9721;BME280;4899;42.644;23.366;2023-05-25T01:09:49;94253.59;;;14.56;100.00
9721;BME280;4899;42.644;23.366;2023-05-25T01:12:18;94252.25;;;14.46;100.00
9721;BME280;4899;42.644;23.366;2023-05-25T01:14:44;94258.50;;;14.45;100.00
9721;BME280;4899;42.644;23.366;2023-05-25T01:17:13;94262.47;;;14.42;100.00
9721;BME280;4899;42.644;23.366;2023-05-25T01:19:40;94262.06;;;14.40;100.00
9721;BME280;4899;42.644;23.366;2023-05-25T01:22:18;94257.97;;;14.39;100.00
9721;BME280;4899;42.644;23.366;2023-05-25T01:24:50;94258.28;;;14.38;100.00
9721;BME280;4899;42.644;23.366;2023-05-25T01:27:30;94258.72;;;14.40;100.00
9721;BME280;4899;42.644;23.366;2023-05-25T01:30:01;94254.41;;;14.32;100.00
9721;BME280;4899;42.644;23.366;2023-05-25T01:32:27;94253.88;;;14.26;100.00
9721;BME280;4899;42.644;23.366;2023-05-25T01:34:54;94248.94;;;14.21;100.00
9721;BME280;4899;42.644;23.366;2023-05-25T01:37:20;94233.78;;;14.07;100.00
9721;BME280;4899;42.644;23.366;2023-05-25T01:39:49;94236.69;;;14.06;100.00
9721;BME280;4899;42.644;23.366;2023-05-25T01:42:15;94226.25;;;14.02;100.00
9721;BME280;4899;42.644;23.366;2023-05-25T01:44:40;94237.53;;;14.10;100.00
9721;BME280;4899;42.644;23.366;2023-05-25T01:47:18;94229.78;;;14.10;100.00
9721;BME280;4899;42.644;23.366;2023-05-25T01:49:59;94222.16;;;14.13;100.00
9721;BME280;4899;42.644;23.366;2023-05-25T01:52:29;94223.75;;;14.18;100.00
9721;BME280;4899;42.644;23.366;2023-05-25T01:55:02;94226.94;;;14.27;100.00
9721;BME280;4899;42.644;23.366;2023-05-25T01:57:32;94230.38;;;14.31;100.00
9721;BME280;4899;42.644;23.366;2023-05-25T01:59:59;94217.66;;;14.26;100.00
9721;BME280;4899;42.644;23.366;2023-05-25T02:02:27;94232.94;;;14.31;100.00
9721;BME280;4899;42.644;23.366;2023-05-25T02:04:53;94201.16;;;14.03;100.00
9721;BME280;4899;42.644;23.366;2023-05-25T02:07:21;94241.28;;;14.25;100.00
9721;BME280;4899;42.644;23.366;2023-05-25T02:09:46;94206.97;;;14.00;100.00
9721;BME280;4899;42.644;23.366;2023-05-25T02:12:12;94226.00;;;14.20;100.00
9721;BME280;4899;42.644;23.366;2023-05-25T02:14:37;94219.56;;;14.13;100.00
9721;BME280;4899;42.644;23.366;2023-05-25T02:17:03;94235.34;;;14.24;100.00
9721;BME280;4899;42.644;23.366;2023-05-25T02:19:29;94240.44;;;14.21;100.00
9721;BME280;4899;42.644;23.366;2023-05-25T02:21:54;94249.53;;;14.14;100.00
9721;BME280;4899;42.644;23.366;2023-05-25T02:24:21;94244.25;;;13.99;100.00
9721;BME280;4899;42.644;23.366;2023-05-25T02:26:49;94254.00;;;13.90;100.00
9721;BME280;4899;42.644;23.366;2023-05-25T02:29:15;94246.78;;;13.71;100.00
9721;BME280;4899;42.644;23.366;2023-05-25T02:31:40;94254.44;;;13.67;100.00
9721;BME280;4899;42.644;23.366;2023-05-25T02:34:05;94254.34;;;13.64;100.00
9721;BME280;4899;42.644;23.366;2023-05-25T02:36:32;94249.91;;;13.52;100.00
9721;BME280;4899;42.644;23.366;2023-05-25T02:38:59;94262.00;;;13.48;100.00
9721;BME280;4899;42.644;23.366;2023-05-25T02:41:24;94259.63;;;13.43;100.00
9721;BME280;4899;42.644;23.366;2023-05-25T02:43:50;94255.19;;;13.31;100.00
9721;BME280;4899;42.644;23.366;2023-05-25T02:46:16;94266.72;;;13.34;100.00
9721;BME280;4899;42.644;23.366;2023-05-25T02:48:41;94265.09;;;13.29;100.00
9721;BME280;4899;42.644;23.366;2023-05-25T02:51:07;94273.59;;;13.30;100.00
9721;BME280;4899;42.644;23.366;2023-05-25T02:53:33;94277.47;;;13.23;100.00
9721;BME280;4899;42.644;23.366;2023-05-25T02:55:58;94267.25;;;13.27;100.00
9721;BME280;4899;42.644;23.366;2023-05-25T02:58:26;94287.16;;;13.27;100.00
9721;BME280;4899;42.644;23.366;2023-05-25T03:00:51;94273.69;;;13.21;100.00
9721;BME280;4899;42.644;23.366;2023-05-25T03:03:18;94278.66;;;13.26;100.00
9721;BME280;4899;42.644;23.366;2023-05-25T03:05:44;94278.75;;;13.30;100.00
9721;BME280;4899;42.644;23.366;2023-05-25T03:08:10;94273.59;;;13.30;100.00
9721;BME280;4899;42.644;23.366;2023-05-25T03:10:35;94288.13;;;13.34;100.00
9721;BME280;4899;42.644;23.366;2023-05-25T03:13:01;94280.59;;;13.29;100.00
9721;BME280;4899;42.644;23.366;2023-05-25T03:15:26;94277.03;;;13.34;100.00
9721;BME280;4899;42.644;23.366;2023-05-25T03:17:51;94290.81;;;13.38;100.00
9721;BME280;4899;42.644;23.366;2023-05-25T03:20:18;94288.03;;;13.43;100.00
9721;BME280;4899;42.644;23.366;2023-05-25T03:22:45;94285.47;;;13.43;100.00
9721;BME280;4899;42.644;23.366;2023-05-25T03:25:11;94286.75;;;13.49;100.00
9721;BME280;4899;42.644;23.366;2023-05-25T03:27:37;94282.00;;;13.51;100.00
9721;BME280;4899;42.644;23.366;2023-05-25T03:30:04;94290.19;;;13.53;100.00
9721;BME280;4899;42.644;23.366;2023-05-25T03:32:29;94285.78;;;13.53;100.00
9721;BME280;4899;42.644;23.366;2023-05-25T03:34:55;94299.66;;;13.61;100.00
9721;BME280;4899;42.644;23.366;2023-05-25T03:37:20;94299.03;;;13.64;100.00
9721;BME280;4899;42.644;23.366;2023-05-25T03:39:46;94294.28;;;13.66;100.00
9721;BME280;4899;42.644;23.366;2023-05-25T03:42:11;94297.09;;;13.73;100.00
9721;BME280;4899;42.644;23.366;2023-05-25T03:44:36;94297.94;;;13.90;100.00
9721;BME280;4899;42.644;23.366;2023-05-25T03:47:02;94295.66;;;14.00;100.00
9721;BME280;4899;42.644;23.366;2023-05-25T03:49:27;94296.19;;;14.06;100.00
9721;BME280;4899;42.644;23.366;2023-05-25T03:51:53;94293.38;;;14.11;100.00
9721;BME280;4899;42.644;23.366;2023-05-25T03:54:18;94290.56;;;14.16;100.00
9721;BME280;4899;42.644;23.366;2023-05-25T03:56:43;94296.38;;;14.25;100.00
9721;BME280;4899;42.644;23.366;2023-05-25T03:59:09;94301.06;;;14.35;100.00
9721;BME280;4899;42.644;23.366;2023-05-25T04:01:34;94304.34;;;14.44;100.00
9721;BME280;4899;42.644;23.366;2023-05-25T04:04:02;94311.09;;;14.49;100.00
9721;BME280;4899;42.644;23.366;2023-05-25T04:06:27;94306.88;;;14.57;100.00
9721;BME280;4899;42.644;23.366;2023-05-25T04:08:54;94312.69;;;14.66;100.00
9721;BME280;4899;42.644;23.366;2023-05-25T04:11:19;94305.34;;;14.68;100.00
9721;BME280;4899;42.644;23.366;2023-05-25T04:13:46;94321.44;;;14.89;100.00
9721;BME280;4899;42.644;23.366;2023-05-25T04:16:12;94335.47;;;15.04;100.00
9721;BME280;4899;42.644;23.366;2023-05-25T04:18:37;94325.41;;;15.15;100.00
9721;BME280;4899;42.644;23.366;2023-05-25T04:21:03;94329.16;;;15.33;100.00
9721;BME280;4899;42.644;23.366;2023-05-25T04:23:28;94323.34;;;15.52;100.00
9721;BME280;4899;42.644;23.366;2023-05-25T04:25:55;94330.88;;;15.73;100.00
9721;BME280;4899;42.644;23.366;2023-05-25T04:28:20;94328.19;;;15.85;100.00
9721;BME280;4899;42.644;23.366;2023-05-25T04:30:46;94337.88;;;16.04;100.00
9721;BME280;4899;42.644;23.366;2023-05-25T04:33:12;94334.03;;;16.13;100.00
9721;BME280;4899;42.644;23.366;2023-05-25T04:35:38;94342.78;;;16.24;100.00
9721;BME280;4899;42.644;23.366;2023-05-25T04:38:06;94343.00;;;16.35;100.00
9721;BME280;4899;42.644;23.366;2023-05-25T04:40:33;94347.38;;;16.50;100.00
9721;BME280;4899;42.644;23.366;2023-05-25T04:43:00;94357.06;;;16.69;100.00
9721;BME280;4899;42.644;23.366;2023-05-25T04:45:25;94354.75;;;16.83;100.00
9721;BME280;4899;42.644;23.366;2023-05-25T04:47:51;94358.84;;;17.04;100.00
9721;BME280;4899;42.644;23.366;2023-05-25T04:50:17;94354.94;;;17.13;100.00
9721;BME280;4899;42.644;23.366;2023-05-25T04:52:42;94342.41;;;17.19;100.00
9721;BME280;4899;42.644;23.366;2023-05-25T04:55:08;94351.94;;;17.34;100.00
9721;BME280;4899;42.644;23.366;2023-05-25T04:57:34;94346.47;;;17.39;100.00
9721;BME280;4899;42.644;23.366;2023-05-25T04:59:59;94336.06;;;17.39;100.00
9721;BME280;4899;42.644;23.366;2023-05-25T05:02:25;94345.13;;;17.49;100.00
9721;BME280;4899;42.644;23.366;2023-05-25T05:04:50;94333.97;;;17.48;100.00
9721;BME280;4899;42.644;23.366;2023-05-25T05:07:18;94341.16;;;17.55;100.00
9721;BME280;4899;42.644;23.366;2023-05-25T05:09:43;94340.00;;;17.52;100.00
9721;BME280;4899;42.644;23.366;2023-05-25T05:12:09;94336.34;;;17.57;100.00
9721;BME280;4899;42.644;23.366;2023-05-25T05:14:34;94327.38;;;17.54;100.00
9721;BME280;4899;42.644;23.366;2023-05-25T05:17:00;94333.19;;;17.44;100.00
9721;BME280;4899;42.644;23.366;2023-05-25T05:19:25;94333.81;;;17.61;100.00
9721;BME280;4899;42.644;23.366;2023-05-25T05:21:51;94333.88;;;17.64;100.00
9721;BME280;4899;42.644;23.366;2023-05-25T05:24:16;94334.75;;;17.72;100.00
9721;BME280;4899;42.644;23.366;2023-05-25T05:26:42;94330.66;;;17.71;100.00
9721;BME280;4899;42.644;23.366;2023-05-25T05:29:07;94330.88;;;17.85;100.00
9721;BME280;4899;42.644;23.366;2023-05-25T05:31:33;94349.34;;;18.03;100.00
9721;BME280;4899;42.644;23.366;2023-05-25T05:34:00;94352.06;;;18.10;100.00
9721;BME280;4899;42.644;23.366;2023-05-25T05:36:26;94352.88;;;18.14;100.00
9721;BME280;4899;42.644;23.366;2023-05-25T05:38:54;94352.19;;;18.21;100.00
9721;BME280;4899;42.644;23.366;2023-05-25T05:41:20;94354.81;;;18.21;100.00
9721;BME280;4899;42.644;23.366;2023-05-25T05:43:45;94362.66;;;18.24;100.00
9721;BME280;4899;42.644;23.366;2023-05-25T05:46:11;94363.47;;;18.28;100.00
9721;BME280;4899;42.644;23.366;2023-05-25T05:48:37;94363.31;;;18.44;100.00
9721;BME280;4899;42.644;23.366;2023-05-25T05:51:03;94362.28;;;18.52;100.00
9721;BME280;4899;42.644;23.366;2023-05-25T05:53:29;94366.09;;;18.32;100.00
9721;BME280;4899;42.644;23.366;2023-05-25T05:55:54;94379.66;;;18.41;100.00
9721;BME280;4899;42.644;23.366;2023-05-25T05:58:24;94374.47;;;18.44;100.00
9721;BME280;4899;42.644;23.366;2023-05-25T06:00:51;94362.66;;;18.51;100.00
9721;BME280;4899;42.644;23.366;2023-05-25T06:03:17;94373.63;;;18.63;100.00
9721;BME280;4899;42.644;23.366;2023-05-25T06:05:43;94365.41;;;18.61;100.00
9721;BME280;4899;42.644;23.366;2023-05-25T06:08:08;94376.75;;;18.76;100.00
9721;BME280;4899;42.644;23.366;2023-05-25T06:10:34;94359.03;;;18.89;100.00
9721;BME280;4899;42.644;23.366;2023-05-25T06:13:00;94371.13;;;19.04;100.00
9721;BME280;4899;42.644;23.366;2023-05-25T06:15:25;94378.00;;;19.19;100.00
9721;BME280;4899;42.644;23.366;2023-05-25T06:17:57;94366.88;;;19.26;100.00
9721;BME280;4899;42.644;23.366;2023-05-25T06:20:22;94378.94;;;19.38;100.00
9721;BME280;4899;42.644;23.366;2023-05-25T06:22:48;94379.19;;;19.62;100.00
9721;BME280;4899;42.644;23.366;2023-05-25T06:25:13;94381.50;;;19.71;100.00
9721;BME280;4899;42.644;23.366;2023-05-25T06:27:40;94383.91;;;19.90;100.00
9721;BME280;4899;42.644;23.366;2023-05-25T06:30:05;94378.34;;;19.95;100.00
9721;BME280;4899;42.644;23.366;2023-05-25T06:32:31;94373.53;;;20.05;100.00
9721;BME280;4899;42.644;23.366;2023-05-25T06:34:57;94382.56;;;20.14;100.00
9721;BME280;4899;42.644;23.366;2023-05-25T06:37:22;94377.25;;;20.04;100.00
9721;BME280;4899;42.644;23.366;2023-05-25T06:39:47;94378.75;;;20.05;100.00
9721;BME280;4899;42.644;23.366;2023-05-25T06:42:13;94377.41;;;20.25;100.00
9721;BME280;4899;42.644;23.366;2023-05-25T06:44:38;94378.63;;;20.38;100.00
9721;BME280;4899;42.644;23.366;2023-05-25T06:47:04;94380.19;;;20.50;100.00
9721;BME280;4899;42.644;23.366;2023-05-25T06:49:29;94389.59;;;20.62;100.00
9721;BME280;4899;42.644;23.366;2023-05-25T06:51:55;94385.16;;;20.73;100.00
9721;BME280;4899;42.644;23.366;2023-05-25T06:54:20;94379.25;;;20.83;100.00
9721;BME280;4899;42.644;23.366;2023-05-25T06:56:46;94374.34;;;20.78;100.00
9721;BME280;4899;42.644;23.366;2023-05-25T06:59:11;94387.88;;;20.98;100.00
9721;BME280;4899;42.644;23.366;2023-05-25T07:01:37;94377.06;;;21.06;100.00
9721;BME280;4899;42.644;23.366;2023-05-25T07:04:02;94382.41;;;21.28;100.00
9721;BME280;4899;42.644;23.366;2023-05-25T07:06:28;94386.13;;;21.30;100.00
9721;BME280;4899;42.644;23.366;2023-05-25T07:08:53;94386.94;;;21.38;100.00
9721;BME280;4899;42.644;23.366;2023-05-25T07:11:20;94381.69;;;21.56;100.00
9721;BME280;4899;42.644;23.366;2023-05-25T07:13:46;94381.72;;;21.66;99.74
9721;BME280;4899;42.644;23.366;2023-05-25T07:16:12;94355.91;;;21.54;96.71
9721;BME280;4899;42.644;23.366;2023-05-25T07:18:38;94376.50;;;21.91;95.27
9721;BME280;4899;42.644;23.366;2023-05-25T07:21:07;94383.59;;;22.01;94.61
9721;BME280;4899;42.644;23.366;2023-05-25T07:23:34;94373.16;;;22.16;93.30
9721;BME280;4899;42.644;23.366;2023-05-25T07:26:00;94384.75;;;22.32;92.62
9721;BME280;4899;42.644;23.366;2023-05-25T07:28:25;94373.09;;;22.48;94.44
9721;BME280;4899;42.644;23.366;2023-05-25T07:30:51;94383.16;;;22.63;89.99
9721;BME280;4899;42.644;23.366;2023-05-25T07:33:16;94385.34;;;22.93;89.30
9721;BME280;4899;42.644;23.366;2023-05-25T07:35:42;94391.72;;;22.92;88.03
9721;BME280;4899;42.644;23.366;2023-05-25T07:38:08;94390.59;;;22.93;88.97
9721;BME280;4899;42.644;23.366;2023-05-25T07:40:34;94397.72;;;22.75;92.48
9721;BME280;4899;42.644;23.366;2023-05-25T07:43:00;94386.59;;;22.42;93.03
9721;BME280;4899;42.644;23.366;2023-05-25T07:45:26;94391.47;;;22.30;91.90
9721;BME280;4899;42.644;23.366;2023-05-25T07:47:51;94390.69;;;22.44;90.38
9721;BME280;4899;42.644;23.366;2023-05-25T07:50:17;94395.97;;;22.36;93.05
9721;BME280;4899;42.644;23.366;2023-05-25T07:52:42;94388.84;;;22.40;90.73
9721;BME280;4899;42.644;23.366;2023-05-25T07:55:08;94395.94;;;22.29;90.65
9721;BME280;4899;42.644;23.366;2023-05-25T07:57:34;94399.34;;;22.23;90.90
9721;BME280;4899;42.644;23.366;2023-05-25T08:00:00;94405.72;;;22.18;91.14
9721;BME280;4899;42.644;23.366;2023-05-25T08:02:26;94392.59;;;21.90;93.44
9721;BME280;4899;42.644;23.366;2023-05-25T08:04:52;94400.84;;;21.85;93.31
9721;BME280;4899;42.644;23.366;2023-05-25T08:07:18;94408.28;;;21.65;95.02
9721;BME280;4899;42.644;23.366;2023-05-25T08:09:44;94411.97;;;21.35;98.19
9721;BME280;4899;42.644;23.366;2023-05-25T08:12:09;94420.41;;;20.97;100.00
9721;BME280;4899;42.644;23.366;2023-05-25T08:14:35;94432.97;;;20.70;100.00
9721;BME280;4899;42.644;23.366;2023-05-25T08:17:00;94427.25;;;20.50;100.00
9721;BME280;4899;42.644;23.366;2023-05-25T08:19:27;94432.75;;;20.38;100.00
9721;BME280;4899;42.644;23.366;2023-05-25T08:21:52;94408.63;;;20.07;100.00
9721;BME280;4899;42.644;23.366;2023-05-25T08:24:18;94441.88;;;20.10;100.00
9721;BME280;4899;42.644;23.366;2023-05-25T08:26:43;94433.03;;;19.81;100.00
9721;BME280;4899;42.644;23.366;2023-05-25T08:29:11;94448.47;;;19.56;100.00
9721;BME280;4899;42.644;23.366;2023-05-25T08:31:38;94457.31;;;19.48;100.00
9721;BME280;4899;42.644;23.366;2023-05-25T08:34:06;94448.66;;;19.41;100.00
9721;BME280;4899;42.644;23.366;2023-05-25T08:36:31;94455.88;;;19.21;100.00
9721;BME280;4899;42.644;23.366;2023-05-25T08:38:59;94460.84;;;18.99;100.00
9721;BME280;4899;42.644;23.366;2023-05-25T08:41:25;94463.72;;;18.91;100.00
9721;BME280;4899;42.644;23.366;2023-05-25T08:43:51;94466.91;;;18.81;100.00
9721;BME280;4899;42.644;23.366;2023-05-25T08:46:29;94465.41;;;18.80;100.00
9721;BME280;4899;42.644;23.366;2023-05-25T08:51:28;94469.84;;;18.53;100.00
9721;BME280;4899;42.644;23.366;2023-05-25T08:54:00;94471.13;;;18.36;100.00
9721;BME280;4899;42.644;23.366;2023-05-25T08:56:31;94475.00;;;18.23;100.00
9721;BME280;4899;42.644;23.366;2023-05-25T08:59:16;94484.09;;;18.09;100.00
9721;BME280;4899;42.644;23.366;2023-05-25T09:01:47;94478.75;;;18.02;100.00
9721;BME280;4899;42.644;23.366;2023-05-25T09:04:17;94489.34;;;17.90;100.00
9721;BME280;4899;42.644;23.366;2023-05-25T09:06:44;94479.06;;;17.59;100.00
9721;BME280;4899;42.644;23.366;2023-05-25T09:09:10;94490.03;;;17.48;100.00
9721;BME280;4899;42.644;23.366;2023-05-25T09:11:38;94484.56;;;17.34;100.00
9721;BME280;4899;42.644;23.366;2023-05-25T09:14:04;94486.50;;;17.18;100.00
9721;BME280;4899;42.644;23.366;2023-05-25T09:16:30;94486.25;;;17.07;100.00
9721;BME280;4899;42.644;23.366;2023-05-25T09:18:57;94490.91;;;16.98;100.00
9721;BME280;4899;42.644;23.366;2023-05-25T09:21:24;94478.94;;;16.94;100.00
9721;BME280;4899;42.644;23.366;2023-05-25T09:23:50;94490.34;;;16.89;100.00
9721;BME280;4899;42.644;23.366;2023-05-25T09:26:15;94478.28;;;16.81;100.00
9721;BME280;4899;42.644;23.366;2023-05-25T09:28:45;94472.94;;;16.74;100.00
9721;BME280;4899;42.644;23.366;2023-05-25T09:31:12;94475.13;;;16.72;100.00
9721;BME280;4899;42.644;23.366;2023-05-25T09:33:38;94477.31;;;16.70;100.00
9721;BME280;4899;42.644;23.366;2023-05-25T09:36:05;94479.72;;;16.78;100.00
9721;BME280;4899;42.644;23.366;2023-05-25T09:38:31;94462.34;;;16.82;100.00
9721;BME280;4899;42.644;23.366;2023-05-25T09:40:57;94460.59;;;16.86;100.00
9721;BME280;4899;42.644;23.366;2023-05-25T09:43:23;94467.72;;;17.09;100.00
9721;BME280;4899;42.644;23.366;2023-05-25T09:45:51;94447.56;;;17.21;100.00
9721;BME280;4899;42.644;23.366;2023-05-25T09:48:17;94464.03;;;17.48;100.00
9721;BME280;4899;42.644;23.366;2023-05-25T09:50:43;94459.91;;;17.67;100.00
9721;BME280;4899;42.644;23.366;2023-05-25T09:53:08;94418.13;;;17.60;100.00
9721;BME280;4899;42.644;23.366;2023-05-25T09:55:36;94454.91;;;18.00;100.00
9721;BME280;4899;42.644;23.366;2023-05-25T09:58:01;94454.22;;;18.26;100.00
9721;BME280;4899;42.644;23.366;2023-05-25T10:00:27;94451.66;;;18.56;100.00
9721;BME280;4899;42.644;23.366;2023-05-25T10:02:52;94450.00;;;18.67;100.00
9721;BME280;4899;42.644;23.366;2023-05-25T10:05:18;94446.78;;;18.78;100.00
9721;BME280;4899;42.644;23.366;2023-05-25T10:07:45;94440.41;;;19.05;100.00
9721;BME280;4899;42.644;23.366;2023-05-25T10:10:14;94459.47;;;19.43;100.00
9721;BME280;4899;42.644;23.366;2023-05-25T10:12:41;94452.25;;;19.59;100.00
9721;BME280;4899;42.644;23.366;2023-05-25T10:15:08;94453.66;;;19.93;100.00
9721;BME280;4899;42.644;23.366;2023-05-25T10:17:35;94445.66;;;20.16;100.00
9721;BME280;4899;42.644;23.366;2023-05-25T10:20:06;94428.63;;;20.33;100.00
9721;BME280;4899;42.644;23.366;2023-05-25T10:22:39;94439.72;;;20.78;100.00
9721;BME280;4899;42.644;23.366;2023-05-25T10:25:17;94433.84;;;20.95;100.00
9721;BME280;4899;42.644;23.366;2023-05-25T10:27:51;94436.84;;;21.04;100.00
9721;BME280;4899;42.644;23.366;2023-05-25T10:30:22;94416.38;;;21.20;100.00
9721;BME280;4899;42.644;23.366;2023-05-25T10:32:49;94418.34;;;21.38;100.00
9721;BME280;4899;42.644;23.366;2023-05-25T10:35:16;94414.97;;;21.52;100.00
9721;BME280;4899;42.644;23.366;2023-05-25T10:37:42;94406.03;;;21.63;100.00
9721;BME280;4899;42.644;23.366;2023-05-25T10:40:09;94409.44;;;21.96;100.00
9721;BME280;4899;42.644;23.366;2023-05-25T10:42:36;94409.47;;;22.10;100.00
9721;BME280;4899;42.644;23.366;2023-05-25T10:45:04;94411.69;;;22.19;100.00
9721;BME280;4899;42.644;23.366;2023-05-25T10:47:30;94399.72;;;22.18;100.00
9721;BME280;4899;42.644;23.366;2023-05-25T10:49:57;94399.75;;;22.07;100.00
9721;BME280;4899;42.644;23.366;2023-05-25T10:52:30;94386.59;;;21.86;100.00
9721;BME280;4899;42.644;23.366;2023-05-25T10:55:00;94393.72;;;21.96;100.00
9721;BME280;4899;42.644;23.366;2023-05-25T10:57:28;94384.72;;;22.00;100.00
9721;BME280;4899;42.644;23.366;2023-05-25T11:00:00;94389.22;;;22.03;100.00
9721;BME280;4899;42.644;23.366;2023-05-25T11:02:29;94383.25;;;22.17;100.00
9721;BME280;4899;42.644;23.366;2023-05-25T11:08:00;94384.03;;;22.07;100.00
9721;BME280;4899;42.644;23.366;2023-05-25T11:13:36;94379.50;;;21.97;100.00
9721;BME280;4899;42.644;23.366;2023-05-25T11:23:59;94386.97;;;21.88;100.00
9721;BME280;4899;42.644;23.366;2023-05-25T11:26:52;94366.75;;;21.81;100.00
9721;BME280;4899;42.644;23.366;2023-05-25T11:29:19;94375.75;;;21.94;100.00
9721;BME280;4899;42.644;23.366;2023-05-25T11:31:51;94380.25;;;21.94;100.00
9721;BME280;4899;42.644;23.366;2023-05-25T11:34:18;94381.75;;;21.95;100.00
9721;BME280;4899;42.644;23.366;2023-05-25T11:36:46;94394.09;;;22.05;100.00
9721;BME280;4899;42.644;23.366;2023-05-25T11:39:11;94381.38;;;21.93;100.00
9721;BME280;4899;42.644;23.366;2023-05-25T11:41:39;94385.13;;;21.85;100.00
9721;BME280;4899;42.644;23.366;2023-05-25T11:44:06;94388.09;;;21.79;100.00
9721;BME280;4899;42.644;23.366;2023-05-25T11:46:32;94382.47;;;21.74;100.00
9721;BME280;4899;42.644;23.366;2023-05-25T11:48:59;94378.38;;;21.66;100.00
9721;BME280;4899;42.644;23.366;2023-05-25T11:51:27;94378.00;;;21.64;100.00
9721;BME280;4899;42.644;23.366;2023-05-25T11:53:53;94372.72;;;21.53;100.00
9721;BME280;4899;42.644;23.366;2023-05-25T11:56:19;94381.72;;;21.73;100.00
9721;BME280;4899;42.644;23.366;2023-05-25T11:58:46;94378.00;;;21.82;100.00
9721;BME280;4899;42.644;23.366;2023-05-25T12:01:22;94380.25;;;21.94;100.00
9721;BME280;4899;42.644;23.366;2023-05-25T12:03:52;94376.13;;;22.35;100.00
9721;BME280;4899;42.644;23.366;2023-05-25T12:06:27;94373.38;;;22.85;89.03
9721;BME280;4899;42.644;23.366;2023-05-25T12:08:54;94384.16;;;23.75;87.71
9721;BME280;4899;42.644;23.366;2023-05-25T12:11:32;94388.00;;;24.56;70.30
9721;BME280;4899;42.644;23.366;2023-05-25T12:13:58;94379.06;;;25.45;69.89
9721;BME280;4899;42.644;23.366;2023-05-25T12:16:24;94382.53;;;26.39;63.77
9721;BME280;4899;42.644;23.366;2023-05-25T12:18:50;94383.22;;;27.22;59.29
9721;BME280;4899;42.644;23.366;2023-05-25T12:21:17;94382.66;;;28.00;55.94
9721;BME280;4899;42.644;23.366;2023-05-25T12:23:43;94386.34;;;28.80;53.62
9721;BME280;4899;42.644;23.366;2023-05-25T12:26:13;94386.16;;;29.67;48.72
9721;BME280;4899;42.644;23.366;2023-05-25T12:28:39;94369.94;;;30.03;50.44
9721;BME280;4899;42.644;23.366;2023-05-25T12:31:24;94364.81;;;30.09;44.56
9721;BME280;4899;42.644;23.366;2023-05-25T12:34:09;94358.25;;;29.88;44.56
9721;BME280;4899;42.644;23.366;2023-05-25T12:36:46;94354.44;;;29.76;46.14
9721;BME280;4899;42.644;23.366;2023-05-25T12:41:57;94351.25;;;31.87;43.59
9721;BME280;4899;42.644;23.366;2023-05-25T12:44:33;94341.97;;;31.51;41.79
9721;BME280;4899;42.644;23.366;2023-05-25T12:47:19;94336.22;;;31.62;40.04
9721;BME280;4899;42.644;23.366;2023-05-25T12:49:46;94348.13;;;31.79;42.76
9721;BME280;4899;42.644;23.366;2023-05-25T12:52:32;94333.72;;;31.68;37.79
9721;BME280;4899;42.644;23.366;2023-05-25T12:58:02;94330.91;;;32.48;39.85
9721;BME280;4899;42.644;23.366;2023-05-25T13:00:39;94325.25;;;32.55;38.95
9721;BME280;4899;42.644;23.366;2023-05-25T13:03:07;94323.09;;;33.05;41.24
9721;BME280;4899;42.644;23.366;2023-05-25T13:05:34;94332.41;;;34.09;37.84
9721;BME280;4899;42.644;23.366;2023-05-25T13:08:01;94314.81;;;34.55;37.04
9721;BME280;4899;42.644;23.366;2023-05-25T13:10:27;94308.19;;;34.66;35.73
9721;BME280;4899;42.644;23.366;2023-05-25T13:12:53;94302.44;;;34.29;35.77
9721;BME280;4899;42.644;23.366;2023-05-25T13:15:22;94304.06;;;34.79;35.37
9721;BME280;4899;42.644;23.366;2023-05-25T13:17:48;94310.13;;;35.09;35.74
9721;BME280;4899;42.644;23.366;2023-05-25T13:20:19;94301.94;;;34.98;35.32
9721;BME280;4899;42.644;23.366;2023-05-25T13:22:45;94286.72;;;34.90;34.66
9721;BME280;4899;42.644;23.366;2023-05-25T13:25:12;94297.16;;;35.02;34.49